sensor_id;sensor_type;location;lat;lon;timestamp;pressure;altitude;pressure_sealevel;temperature;humidity
10348;BME280;5220;43.192;23.284;2023-08-31T00:00:34;96342.28;;;22.98;100.00
10348;BME280;5220;43.192;23.284;2023-08-31T00:03:01;96336.97;;;22.92;100.00
10348;BME280;5220;43.192;23.284;2023-08-31T00:05:28;96336.16;;;22.98;100.00
10348;BME280;5220;43.192;23.284;2023-08-31T00:07:55;96331.50;;;22.93;100.00
10348;BME280;5220;43.192;23.284;2023-08-31T00:10:24;96343.13;;;22.92;100.00
10348;BME280;5220;43.192;23.284;2023-08-31T00:12:51;96342.19;;;22.39;100.00
10348;BME280;5220;43.192;23.284;2023-08-31T00:15:17;96331.59;;;22.39;100.00
10348;BME280;5220;43.192;23.284;2023-08-31T00:17:44;96343.03;;;22.46;100.00
10348;BME280;5220;43.192;23.284;2023-08-31T00:20:11;96339.34;;;22.41;100.00
10348;BME280;5220;43.192;23.284;2023-08-31T00:22:38;96345.06;;;22.58;100.00
10348;BME280;5220;43.192;23.284;2023-08-31T00:25:05;96347.09;;;22.42;100.00
10348;BME280;5220;43.192;23.284;2023-08-31T00:27:35;96343.13;;;22.12;84.71
10348;BME280;5220;43.192;23.284;2023-08-31T00:30:04;96330.56;;;22.40;94.40
10348;BME280;5220;43.192;23.284;2023-08-31T00:32:32;96343.34;;;22.24;98.27
10348;BME280;5220;43.192;23.284;2023-08-31T00:35:00;96346.78;;;22.11;98.88
10348;BME280;5220;43.192;23.284;2023-08-31T00:37:28;96349.31;;;22.26;100.00
10348;BME280;5220;43.192;23.284;2023-08-31T00:39:55;96344.44;;;22.49;98.58
10348;BME280;5220;43.192;23.284;2023-08-31T00:42:21;96353.63;;;22.46;100.00
10348;BME280;5220;43.192;23.284;2023-08-31T00:44:51;96348.97;;;22.62;100.00
10348;BME280;5220;43.192;23.284;2023-08-31T00:47:19;96348.00;;;22.69;100.00
10348;BME280;5220;43.192;23.284;2023-08-31T00:49:46;96342.91;;;22.74;100.00
10348;BME280;5220;43.192;23.284;2023-08-31T00:52:13;96346.38;;;22.75;100.00
10348;BME280;5220;43.192;23.284;2023-08-31T00:54:40;96358.63;;;22.76;100.00
10348;BME280;5220;43.192;23.284;2023-08-31T00:57:07;96352.91;;;22.72;100.00
10348;BME280;5220;43.192;23.284;2023-08-31T00:59:34;96349.19;;;22.67;100.00
10348;BME280;5220;43.192;23.284;2023-08-31T01:02:08;96356.31;;;22.60;100.00
10348;BME280;5220;43.192;23.284;2023-08-31T01:04:43;96367.09;;;22.51;100.00
10348;BME280;5220;43.192;23.284;2023-08-31T01:07:19;96369.97;;;22.50;100.00
10348;BME280;5220;43.192;23.284;2023-08-31T01:09:55;96369.31;;;22.41;100.00
10348;BME280;5220;43.192;23.284;2023-08-31T01:12:30;96363.56;;;22.31;100.00
10348;BME280;5220;43.192;23.284;2023-08-31T01:15:03;96372.50;;;22.24;100.00
10348;BME280;5220;43.192;23.284;2023-08-31T01:17:39;96363.53;;;22.18;100.00
10348;BME280;5220;43.192;23.284;2023-08-31T01:20:09;96359.84;;;22.13;100.00
10348;BME280;5220;43.192;23.284;2023-08-31T01:22:40;96360.44;;;22.15;100.00
10348;BME280;5220;43.192;23.284;2023-08-31T01:25:12;96364.31;;;22.12;100.00
10348;BME280;5220;43.192;23.284;2023-08-31T01:27:39;96358.97;;;21.99;100.00
10348;BME280;5220;43.192;23.284;2023-08-31T01:30:07;96355.69;;;21.97;100.00
10348;BME280;5220;43.192;23.284;2023-08-31T01:32:34;96363.00;;;21.95;100.00
10348;BME280;5220;43.192;23.284;2023-08-31T01:35:03;96365.25;;;21.91;100.00
10348;BME280;5220;43.192;23.284;2023-08-31T01:37:36;96356.69;;;21.62;100.00
10348;BME280;5220;43.192;23.284;2023-08-31T01:40:12;96377.13;;;21.40;100.00
10348;BME280;5220;43.192;23.284;2023-08-31T01:42:42;96376.50;;;21.66;100.00
10348;BME280;5220;43.192;23.284;2023-08-31T01:45:10;96376.25;;;21.61;100.00
10348;BME280;5220;43.192;23.284;2023-08-31T01:47:38;96375.47;;;21.32;100.00
10348;BME280;5220;43.192;23.284;2023-08-31T01:50:05;96377.66;;;21.29;100.00
10348;BME280;5220;43.192;23.284;2023-08-31T01:52:32;96380.63;;;21.47;100.00
10348;BME280;5220;43.192;23.284;2023-08-31T01:54:59;96373.41;;;21.62;100.00
10348;BME280;5220;43.192;23.284;2023-08-31T01:57:27;96381.38;;;21.69;100.00
10348;BME280;5220;43.192;23.284;2023-08-31T01:59:54;96389.00;;;21.02;100.00
10348;BME280;5220;43.192;23.284;2023-08-31T02:02:20;96392.47;;;20.60;100.00
10348;BME280;5220;43.192;23.284;2023-08-31T02:04:47;96396.84;;;21.10;100.00
10348;BME280;5220;43.192;23.284;2023-08-31T02:07:15;96392.34;;;21.31;100.00
10348;BME280;5220;43.192;23.284;2023-08-31T02:09:42;96392.94;;;21.33;100.00
10348;BME280;5220;43.192;23.284;2023-08-31T02:12:09;96391.75;;;21.36;100.00
10348;BME280;5220;43.192;23.284;2023-08-31T02:14:37;96390.03;;;21.50;100.00
10348;BME280;5220;43.192;23.284;2023-08-31T02:17:04;96393.94;;;21.54;100.00
10348;BME280;5220;43.192;23.284;2023-08-31T02:19:30;96395.53;;;21.55;100.00
10348;BME280;5220;43.192;23.284;2023-08-31T02:21:57;96387.22;;;21.58;100.00
10348;BME280;5220;43.192;23.284;2023-08-31T02:24:24;96387.38;;;21.50;100.00
10348;BME280;5220;43.192;23.284;2023-08-31T02:26:51;96390.88;;;21.57;100.00
10348;BME280;5220;43.192;23.284;2023-08-31T02:29:18;96390.63;;;21.52;100.00
10348;BME280;5220;43.192;23.284;2023-08-31T02:31:46;96389.34;;;21.41;100.00
10348;BME280;5220;43.192;23.284;2023-08-31T02:34:13;96399.44;;;21.31;100.00
10348;BME280;5220;43.192;23.284;2023-08-31T02:36:39;96398.56;;;21.24;100.00
10348;BME280;5220;43.192;23.284;2023-08-31T02:39:06;96404.25;;;21.21;100.00
10348;BME280;5220;43.192;23.284;2023-08-31T02:41:33;96408.81;;;21.33;100.00
10348;BME280;5220;43.192;23.284;2023-08-31T02:44:00;96402.63;;;21.20;100.00
10348;BME280;5220;43.192;23.284;2023-08-31T02:46:26;96402.03;;;21.24;100.00
10348;BME280;5220;43.192;23.284;2023-08-31T02:48:54;96412.06;;;21.29;100.00
10348;BME280;5220;43.192;23.284;2023-08-31T02:51:21;96407.38;;;21.31;100.00
10348;BME280;5220;43.192;23.284;2023-08-31T02:53:48;96408.38;;;21.30;100.00
10348;BME280;5220;43.192;23.284;2023-08-31T02:56:15;96415.91;;;21.26;100.00
10348;BME280;5220;43.192;23.284;2023-08-31T02:58:41;96405.50;;;21.25;100.00
10348;BME280;5220;43.192;23.284;2023-08-31T03:01:09;96416.91;;;21.25;100.00
10348;BME280;5220;43.192;23.284;2023-08-31T03:03:37;96419.28;;;21.20;100.00
10348;BME280;5220;43.192;23.284;2023-08-31T03:06:06;96409.75;;;21.19;100.00
10348;BME280;5220;43.192;23.284;2023-08-31T03:08:32;96418.44;;;21.13;100.00
10348;BME280;5220;43.192;23.284;2023-08-31T03:10:59;96425.19;;;21.16;100.00
10348;BME280;5220;43.192;23.284;2023-08-31T03:13:26;96424.41;;;21.01;100.00
10348;BME280;5220;43.192;23.284;2023-08-31T03:15:52;96433.59;;;21.05;100.00
10348;BME280;5220;43.192;23.284;2023-08-31T03:18:19;96434.00;;;21.08;100.00
10348;BME280;5220;43.192;23.284;2023-08-31T03:20:46;96432.13;;;21.02;100.00
10348;BME280;5220;43.192;23.284;2023-08-31T03:23:14;96427.59;;;20.96;100.00
10348;BME280;5220;43.192;23.284;2023-08-31T03:25:41;96426.41;;;20.99;100.00
10348;BME280;5220;43.192;23.284;2023-08-31T03:28:08;96431.75;;;20.84;100.00
10348;BME280;5220;43.192;23.284;2023-08-31T03:30:35;96428.56;;;20.88;100.00
10348;BME280;5220;43.192;23.284;2023-08-31T03:33:02;96427.13;;;20.86;100.00
10348;BME280;5220;43.192;23.284;2023-08-31T03:35:29;96435.03;;;20.86;100.00
10348;BME280;5220;43.192;23.284;2023-08-31T03:37:56;96434.78;;;20.81;100.00
10348;BME280;5220;43.192;23.284;2023-08-31T03:40:24;96438.78;;;20.77;100.00
10348;BME280;5220;43.192;23.284;2023-08-31T03:42:50;96440.88;;;20.81;100.00
10348;BME280;5220;43.192;23.284;2023-08-31T03:45:18;96429.88;;;20.78;100.00
10348;BME280;5220;43.192;23.284;2023-08-31T03:47:44;96435.91;;;20.72;100.00
10348;BME280;5220;43.192;23.284;2023-08-31T03:50:11;96433.00;;;20.67;100.00
10348;BME280;5220;43.192;23.284;2023-08-31T03:52:38;96439.13;;;20.67;100.00
10348;BME280;5220;43.192;23.284;2023-08-31T03:55:05;96448.50;;;20.55;100.00
10348;BME280;5220;43.192;23.284;2023-08-31T03:57:33;96446.16;;;20.46;100.00
10348;BME280;5220;43.192;23.284;2023-08-31T04:00:00;96442.91;;;20.44;100.00
10348;BME280;5220;43.192;23.284;2023-08-31T04:02:29;96448.81;;;20.46;100.00
10348;BME280;5220;43.192;23.284;2023-08-31T04:04:57;96446.81;;;20.48;100.00
10348;BME280;5220;43.192;23.284;2023-08-31T04:07:24;96454.53;;;20.49;100.00
10348;BME280;5220;43.192;23.284;2023-08-31T04:09:51;96453.38;;;20.52;100.00
10348;BME280;5220;43.192;23.284;2023-08-31T04:12:17;96456.03;;;20.52;100.00
10348;BME280;5220;43.192;23.284;2023-08-31T04:14:45;96456.03;;;20.37;100.00
10348;BME280;5220;43.192;23.284;2023-08-31T04:17:12;96462.91;;;20.53;100.00
10348;BME280;5220;43.192;23.284;2023-08-31T04:19:39;96474.78;;;20.57;100.00
10348;BME280;5220;43.192;23.284;2023-08-31T04:22:05;96469.38;;;20.65;100.00
10348;BME280;5220;43.192;23.284;2023-08-31T04:24:32;96479.56;;;20.68;100.00
10348;BME280;5220;43.192;23.284;2023-08-31T04:26:59;96482.88;;;20.70;100.00
10348;BME280;5220;43.192;23.284;2023-08-31T04:29:25;96484.94;;;20.74;100.00
10348;BME280;5220;43.192;23.284;2023-08-31T04:31:53;96496.41;;;20.81;100.00
10348;BME280;5220;43.192;23.284;2023-08-31T04:34:20;96492.41;;;20.85;100.00
10348;BME280;5220;43.192;23.284;2023-08-31T04:36:47;96494.22;;;20.85;100.00
10348;BME280;5220;43.192;23.284;2023-08-31T04:39:14;96496.19;;;20.83;100.00
10348;BME280;5220;43.192;23.284;2023-08-31T04:41:41;96495.22;;;20.84;100.00
10348;BME280;5220;43.192;23.284;2023-08-31T04:44:07;96499.31;;;20.86;100.00
10348;BME280;5220;43.192;23.284;2023-08-31T04:46:34;96497.94;;;20.90;100.00
10348;BME280;5220;43.192;23.284;2023-08-31T04:49:02;96507.31;;;20.93;100.00
10348;BME280;5220;43.192;23.284;2023-08-31T04:51:30;96518.84;;;20.71;100.00
10348;BME280;5220;43.192;23.284;2023-08-31T04:53:57;96523.75;;;20.88;100.00
10348;BME280;5220;43.192;23.284;2023-08-31T04:56:24;96521.03;;;20.82;100.00
10348;BME280;5220;43.192;23.284;2023-08-31T04:58:51;96525.44;;;20.96;100.00
10348;BME280;5220;43.192;23.284;2023-08-31T05:01:18;96535.25;;;20.81;100.00
10348;BME280;5220;43.192;23.284;2023-08-31T05:03:44;96530.63;;;21.04;100.00
10348;BME280;5220;43.192;23.284;2023-08-31T05:06:13;96536.53;;;20.85;100.00
10348;BME280;5220;43.192;23.284;2023-08-31T05:08:39;96542.22;;;21.03;100.00
10348;BME280;5220;43.192;23.284;2023-08-31T05:11:06;96547.09;;;21.21;100.00
10348;BME280;5220;43.192;23.284;2023-08-31T05:13:33;96545.97;;;21.30;100.00
10348;BME280;5220;43.192;23.284;2023-08-31T05:16:00;96544.84;;;21.39;100.00
10348;BME280;5220;43.192;23.284;2023-08-31T05:18:28;96538.75;;;21.38;100.00
10348;BME280;5220;43.192;23.284;2023-08-31T05:20:54;96539.38;;;21.40;100.00
10348;BME280;5220;43.192;23.284;2023-08-31T05:23:22;96528.91;;;21.54;100.00
10348;BME280;5220;43.192;23.284;2023-08-31T05:25:49;96534.13;;;21.68;100.00
10348;BME280;5220;43.192;23.284;2023-08-31T05:28:16;96537.28;;;21.78;100.00
10348;BME280;5220;43.192;23.284;2023-08-31T05:30:48;96522.69;;;21.89;100.00
10348;BME280;5220;43.192;23.284;2023-08-31T05:33:16;96528.06;;;21.95;100.00
10348;BME280;5220;43.192;23.284;2023-08-31T05:35:43;96536.22;;;21.94;100.00
10348;BME280;5220;43.192;23.284;2023-08-31T05:38:10;96538.75;;;22.09;100.00
10348;BME280;5220;43.192;23.284;2023-08-31T05:40:38;96543.09;;;22.16;100.00
10348;BME280;5220;43.192;23.284;2023-08-31T05:43:05;96544.75;;;22.24;100.00
10348;BME280;5220;43.192;23.284;2023-08-31T05:45:32;96546.63;;;22.30;100.00
10348;BME280;5220;43.192;23.284;2023-08-31T05:47:59;96551.44;;;22.47;100.00
10348;BME280;5220;43.192;23.284;2023-08-31T05:50:26;96548.75;;;22.41;100.00
10348;BME280;5220;43.192;23.284;2023-08-31T05:52:53;96542.34;;;22.63;100.00
10348;BME280;5220;43.192;23.284;2023-08-31T05:55:20;96550.44;;;22.89;100.00
10348;BME280;5220;43.192;23.284;2023-08-31T06:00:15;96545.59;;;23.06;100.00
10348;BME280;5220;43.192;23.284;2023-08-31T06:02:42;96559.31;;;23.29;100.00
10348;BME280;5220;43.192;23.284;2023-08-31T06:05:10;96559.81;;;23.46;100.00
10348;BME280;5220;43.192;23.284;2023-08-31T06:07:38;96565.78;;;23.68;100.00
10348;BME280;5220;43.192;23.284;2023-08-31T06:10:06;96559.66;;;23.87;100.00
10348;BME280;5220;43.192;23.284;2023-08-31T06:12:33;96567.00;;;24.04;100.00
10348;BME280;5220;43.192;23.284;2023-08-31T06:15:01;96567.22;;;24.23;100.00
10348;BME280;5220;43.192;23.284;2023-08-31T06:17:28;96563.13;;;24.40;100.00
10348;BME280;5220;43.192;23.284;2023-08-31T06:19:55;96561.84;;;24.55;100.00
10348;BME280;5220;43.192;23.284;2023-08-31T06:22:22;96565.50;;;24.68;100.00
10348;BME280;5220;43.192;23.284;2023-08-31T06:24:49;96566.50;;;24.80;100.00
10348;BME280;5220;43.192;23.284;2023-08-31T06:27:17;96574.09;;;24.83;95.95
10348;BME280;5220;43.192;23.284;2023-08-31T06:29:43;96570.81;;;24.87;93.94
10348;BME280;5220;43.192;23.284;2023-08-31T06:32:11;96583.59;;;25.10;94.57
10348;BME280;5220;43.192;23.284;2023-08-31T06:34:38;96575.78;;;25.22;94.44
10348;BME280;5220;43.192;23.284;2023-08-31T06:37:05;96573.69;;;25.30;97.21
10348;BME280;5220;43.192;23.284;2023-08-31T06:39:31;96581.09;;;25.22;87.49
10348;BME280;5220;43.192;23.284;2023-08-31T06:41:59;96590.69;;;25.29;74.47
10348;BME280;5220;43.192;23.284;2023-08-31T06:44:25;96590.78;;;25.47;78.69
10348;BME280;5220;43.192;23.284;2023-08-31T06:46:52;96588.34;;;25.46;79.80
10348;BME280;5220;43.192;23.284;2023-08-31T06:49:21;96603.56;;;25.32;88.60
10348;BME280;5220;43.192;23.284;2023-08-31T06:51:48;96603.94;;;25.49;81.35
10348;BME280;5220;43.192;23.284;2023-08-31T06:54:15;96595.09;;;25.48;79.03
10348;BME280;5220;43.192;23.284;2023-08-31T06:56:41;96603.03;;;25.61;76.77
10348;BME280;5220;43.192;23.284;2023-08-31T06:59:08;96612.47;;;25.89;74.33
10348;BME280;5220;43.192;23.284;2023-08-31T07:01:35;96603.56;;;26.01;77.75
10348;BME280;5220;43.192;23.284;2023-08-31T07:04:02;96613.16;;;26.09;75.01
10348;BME280;5220;43.192;23.284;2023-08-31T07:06:33;96609.00;;;26.19;73.20
10348;BME280;5220;43.192;23.284;2023-08-31T07:09:00;96607.28;;;26.25;75.23
10348;BME280;5220;43.192;23.284;2023-08-31T07:11:26;96604.00;;;26.30;69.60
10348;BME280;5220;43.192;23.284;2023-08-31T07:13:53;96606.75;;;26.16;66.87
10348;BME280;5220;43.192;23.284;2023-08-31T07:16:20;96616.94;;;26.26;71.57
10348;BME280;5220;43.192;23.284;2023-08-31T07:18:46;96613.16;;;26.40;64.74
10348;BME280;5220;43.192;23.284;2023-08-31T07:21:13;96615.81;;;26.40;65.48
10348;BME280;5220;43.192;23.284;2023-08-31T07:23:41;96617.88;;;26.56;63.83
10348;BME280;5220;43.192;23.284;2023-08-31T07:26:08;96612.28;;;26.64;61.51
10348;BME280;5220;43.192;23.284;2023-08-31T07:28:34;96613.75;;;26.60;59.33
10348;BME280;5220;43.192;23.284;2023-08-31T07:31:02;96617.75;;;26.51;58.82
10348;BME280;5220;43.192;23.284;2023-08-31T07:33:30;96612.94;;;26.60;60.95
10348;BME280;5220;43.192;23.284;2023-08-31T07:35:58;96610.50;;;26.58;63.43
10348;BME280;5220;43.192;23.284;2023-08-31T07:38:25;96617.56;;;26.71;60.32
10348;BME280;5220;43.192;23.284;2023-08-31T07:40:53;96622.22;;;26.76;60.34
10348;BME280;5220;43.192;23.284;2023-08-31T07:43:20;96624.22;;;26.62;61.26
10348;BME280;5220;43.192;23.284;2023-08-31T07:45:46;96622.25;;;26.51;60.85
10348;BME280;5220;43.192;23.284;2023-08-31T07:48:13;96639.03;;;26.58;65.35
10348;BME280;5220;43.192;23.284;2023-08-31T07:50:40;96646.97;;;26.64;65.23
10348;BME280;5220;43.192;23.284;2023-08-31T07:53:07;96635.69;;;26.62;62.43
10348;BME280;5220;43.192;23.284;2023-08-31T07:55:34;96642.97;;;26.55;61.82
10348;BME280;5220;43.192;23.284;2023-08-31T07:58:02;96640.72;;;26.52;61.41
10348;BME280;5220;43.192;23.284;2023-08-31T08:00:29;96631.56;;;26.42;63.59
10348;BME280;5220;43.192;23.284;2023-08-31T08:02:56;96641.53;;;26.28;71.96
10348;BME280;5220;43.192;23.284;2023-08-31T08:05:22;96645.84;;;26.29;64.63
10348;BME280;5220;43.192;23.284;2023-08-31T08:07:49;96646.72;;;26.23;67.04
10348;BME280;5220;43.192;23.284;2023-08-31T08:10:16;96643.75;;;26.31;68.56
10348;BME280;5220;43.192;23.284;2023-08-31T08:12:43;96639.19;;;26.38;66.32
10348;BME280;5220;43.192;23.284;2023-08-31T08:15:12;96646.31;;;26.44;65.01
10348;BME280;5220;43.192;23.284;2023-08-31T08:17:39;96639.97;;;26.45;63.69
10348;BME280;5220;43.192;23.284;2023-08-31T08:20:07;96646.19;;;26.39;66.79
10348;BME280;5220;43.192;23.284;2023-08-31T08:22:34;96636.09;;;26.41;66.83
10348;BME280;5220;43.192;23.284;2023-08-31T08:25:02;96634.63;;;26.45;71.36
10348;BME280;5220;43.192;23.284;2023-08-31T08:27:29;96634.72;;;26.57;66.08
10348;BME280;5220;43.192;23.284;2023-08-31T08:29:57;96632.00;;;26.63;64.16
10348;BME280;5220;43.192;23.284;2023-08-31T08:32:25;96642.81;;;26.68;69.39
10348;BME280;5220;43.192;23.284;2023-08-31T08:34:51;96639.88;;;26.77;69.29
10348;BME280;5220;43.192;23.284;2023-08-31T08:37:19;96636.56;;;26.81;72.71
10348;BME280;5220;43.192;23.284;2023-08-31T08:39:48;96633.81;;;26.88;65.71
10348;BME280;5220;43.192;23.284;2023-08-31T08:42:16;96634.44;;;26.90;66.76
10348;BME280;5220;43.192;23.284;2023-08-31T08:44:44;96634.44;;;26.90;65.25
10348;BME280;5220;43.192;23.284;2023-08-31T08:47:11;96628.41;;;26.94;62.53
10348;BME280;5220;43.192;23.284;2023-08-31T08:49:39;96629.75;;;27.03;70.47
10348;BME280;5220;43.192;23.284;2023-08-31T08:52:06;96634.50;;;26.83;70.94
10348;BME280;5220;43.192;23.284;2023-08-31T08:54:35;96635.97;;;26.97;69.80
10348;BME280;5220;43.192;23.284;2023-08-31T08:57:02;96631.00;;;27.01;69.90
10348;BME280;5220;43.192;23.284;2023-08-31T08:59:30;96632.50;;;27.15;72.73
10348;BME280;5220;43.192;23.284;2023-08-31T09:01:57;96624.50;;;27.15;67.16
10348;BME280;5220;43.192;23.284;2023-08-31T09:04:23;96627.75;;;27.17;63.23
10348;BME280;5220;43.192;23.284;2023-08-31T09:06:51;96628.78;;;27.16;68.13
10348;BME280;5220;43.192;23.284;2023-08-31T09:09:18;96630.34;;;27.23;65.93
10348;BME280;5220;43.192;23.284;2023-08-31T09:11:45;96625.75;;;27.12;65.46
10348;BME280;5220;43.192;23.284;2023-08-31T09:14:15;96631.47;;;26.98;69.21
10348;BME280;5220;43.192;23.284;2023-08-31T09:16:44;96635.25;;;27.08;67.62
10348;BME280;5220;43.192;23.284;2023-08-31T09:19:21;96633.69;;;27.19;61.20
10348;BME280;5220;43.192;23.284;2023-08-31T09:21:48;96637.31;;;27.24;62.66
10348;BME280;5220;43.192;23.284;2023-08-31T09:24:17;96637.69;;;27.28;64.22
10348;BME280;5220;43.192;23.284;2023-08-31T09:26:44;96639.69;;;27.33;65.97
10348;BME280;5220;43.192;23.284;2023-08-31T09:29:11;96630.19;;;27.18;62.98
10348;BME280;5220;43.192;23.284;2023-08-31T09:31:41;96634.28;;;27.03;63.66
10348;BME280;5220;43.192;23.284;2023-08-31T09:34:08;96629.91;;;27.08;59.22
10348;BME280;5220;43.192;23.284;2023-08-31T09:36:36;96631.50;;;27.27;58.03
10348;BME280;5220;43.192;23.284;2023-08-31T09:39:03;96631.63;;;27.21;57.46
10348;BME280;5220;43.192;23.284;2023-08-31T09:41:33;96625.78;;;27.42;56.43
10348;BME280;5220;43.192;23.284;2023-08-31T09:44:14;96631.09;;;27.49;57.67
10348;BME280;5220;43.192;23.284;2023-08-31T09:46:41;96637.25;;;26.95;56.26
10348;BME280;5220;43.192;23.284;2023-08-31T09:49:08;96632.50;;;27.15;57.45
10348;BME280;5220;43.192;23.284;2023-08-31T09:51:38;96638.66;;;27.15;56.74
10348;BME280;5220;43.192;23.284;2023-08-31T09:54:07;96633.53;;;27.14;60.58
10348;BME280;5220;43.192;23.284;2023-08-31T09:56:37;96640.16;;;27.11;58.54
10348;BME280;5220;43.192;23.284;2023-08-31T09:59:04;96636.72;;;27.04;60.39
10348;BME280;5220;43.192;23.284;2023-08-31T10:01:31;96642.97;;;26.98;59.57
10348;BME280;5220;43.192;23.284;2023-08-31T10:03:59;96647.09;;;26.94;60.47
10348;BME280;5220;43.192;23.284;2023-08-31T10:06:27;96637.38;;;26.82;60.69
10348;BME280;5220;43.192;23.284;2023-08-31T10:08:54;96643.38;;;26.77;60.56
10348;BME280;5220;43.192;23.284;2023-08-31T10:11:22;96652.75;;;27.04;59.79
10348;BME280;5220;43.192;23.284;2023-08-31T10:13:52;96643.63;;;26.94;63.04
10348;BME280;5220;43.192;23.284;2023-08-31T10:16:21;96645.19;;;27.19;64.96
10348;BME280;5220;43.192;23.284;2023-08-31T10:18:48;96645.25;;;27.31;62.52
10348;BME280;5220;43.192;23.284;2023-08-31T10:21:16;96647.84;;;27.38;62.49
10348;BME280;5220;43.192;23.284;2023-08-31T10:23:44;96656.44;;;27.21;63.74
10348;BME280;5220;43.192;23.284;2023-08-31T10:26:11;96649.84;;;27.42;63.10
10348;BME280;5220;43.192;23.284;2023-08-31T10:28:40;96649.59;;;27.62;64.08
10348;BME280;5220;43.192;23.284;2023-08-31T10:31:09;96658.03;;;27.47;58.78
10348;BME280;5220;43.192;23.284;2023-08-31T10:33:40;96655.34;;;27.47;58.86
10348;BME280;5220;43.192;23.284;2023-08-31T10:36:12;96656.03;;;27.43;62.22
10348;BME280;5220;43.192;23.284;2023-08-31T10:38:40;96655.13;;;27.49;60.87
10348;BME280;5220;43.192;23.284;2023-08-31T10:41:21;96653.88;;;27.51;62.70
10348;BME280;5220;43.192;23.284;2023-08-31T10:43:50;96654.28;;;27.66;58.52
10348;BME280;5220;43.192;23.284;2023-08-31T10:46:25;96656.09;;;27.36;59.45
10348;BME280;5220;43.192;23.284;2023-08-31T10:48:53;96657.13;;;27.17;60.64
10348;BME280;5220;43.192;23.284;2023-08-31T10:51:28;96656.09;;;27.54;57.72
10348;BME280;5220;43.192;23.284;2023-08-31T10:54:09;96656.41;;;27.76;56.47
10348;BME280;5220;43.192;23.284;2023-08-31T10:57:01;96655.19;;;27.60;57.40
10348;BME280;5220;43.192;23.284;2023-08-31T10:59:41;96664.88;;;27.73;57.36
10348;BME280;5220;43.192;23.284;2023-08-31T11:02:11;96663.16;;;27.78;55.00
10348;BME280;5220;43.192;23.284;2023-08-31T11:04:54;96667.09;;;27.76;55.15
10348;BME280;5220;43.192;23.284;2023-08-31T11:07:24;96664.81;;;27.80;54.91
10348;BME280;5220;43.192;23.284;2023-08-31T11:09:51;96661.03;;;27.99;55.65
10348;BME280;5220;43.192;23.284;2023-08-31T11:12:22;96663.41;;;28.07;56.98
10348;BME280;5220;43.192;23.284;2023-08-31T11:14:48;96667.53;;;28.03;57.68
10348;BME280;5220;43.192;23.284;2023-08-31T11:17:16;96665.03;;;28.08;57.37
10348;BME280;5220;43.192;23.284;2023-08-31T11:19:44;96665.31;;;27.58;54.43
10348;BME280;5220;43.192;23.284;2023-08-31T11:22:11;96671.69;;;27.57;54.35
10348;BME280;5220;43.192;23.284;2023-08-31T11:24:38;96674.31;;;27.75;56.61
10348;BME280;5220;43.192;23.284;2023-08-31T11:27:07;96669.59;;;27.89;55.47
10348;BME280;5220;43.192;23.284;2023-08-31T11:29:37;96670.66;;;27.58;55.88
10348;BME280;5220;43.192;23.284;2023-08-31T11:32:04;96667.09;;;27.76;55.43
10348;BME280;5220;43.192;23.284;2023-08-31T11:34:32;96662.34;;;27.48;55.92
10348;BME280;5220;43.192;23.284;2023-08-31T11:36:59;96660.09;;;27.63;53.82
10348;BME280;5220;43.192;23.284;2023-08-31T11:39:26;96657.59;;;27.80;55.44
10348;BME280;5220;43.192;23.284;2023-08-31T11:41:54;96663.69;;;27.69;53.63
10348;BME280;5220;43.192;23.284;2023-08-31T11:44:21;96653.75;;;27.76;55.18
10348;BME280;5220;43.192;23.284;2023-08-31T11:46:49;96644.09;;;28.05;55.63
10348;BME280;5220;43.192;23.284;2023-08-31T11:49:17;96643.66;;;28.19;53.37
10348;BME280;5220;43.192;23.284;2023-08-31T11:51:46;96646.97;;;28.33;55.07
10348;BME280;5220;43.192;23.284;2023-08-31T11:54:13;96654.25;;;28.26;51.13
10348;BME280;5220;43.192;23.284;2023-08-31T11:56:40;96644.38;;;28.38;51.49
10348;BME280;5220;43.192;23.284;2023-08-31T11:59:09;96640.31;;;28.47;50.88
10348;BME280;5220;43.192;23.284;2023-08-31T12:01:40;96646.97;;;28.33;52.10
10348;BME280;5220;43.192;23.284;2023-08-31T12:04:11;96633.56;;;28.33;50.86
10348;BME280;5220;43.192;23.284;2023-08-31T12:06:38;96637.66;;;28.36;52.56
10348;BME280;5220;43.192;23.284;2023-08-31T12:09:08;96631.81;;;28.39;52.73
10348;BME280;5220;43.192;23.284;2023-08-31T12:11:35;96633.00;;;28.43;51.79
10348;BME280;5220;43.192;23.284;2023-08-31T12:14:02;96627.66;;;28.54;51.06
10348;BME280;5220;43.192;23.284;2023-08-31T12:16:33;96637.75;;;28.17;53.34
10348;BME280;5220;43.192;23.284;2023-08-31T12:19:02;96633.91;;;28.37;52.79
10348;BME280;5220;43.192;23.284;2023-08-31T12:21:29;96634.72;;;28.37;52.70
10348;BME280;5220;43.192;23.284;2023-08-31T12:23:57;96633.41;;;28.05;51.53
10348;BME280;5220;43.192;23.284;2023-08-31T12:26:25;96630.06;;;27.91;51.62
10348;BME280;5220;43.192;23.284;2023-08-31T12:28:52;96635.00;;;28.06;51.10
10348;BME280;5220;43.192;23.284;2023-08-31T12:31:18;96634.34;;;28.10;50.34
10348;BME280;5220;43.192;23.284;2023-08-31T12:33:45;96637.28;;;28.20;51.08
10348;BME280;5220;43.192;23.284;2023-08-31T12:36:12;96634.91;;;28.12;50.30
10348;BME280;5220;43.192;23.284;2023-08-31T12:38:39;96633.53;;;28.21;50.48
10348;BME280;5220;43.192;23.284;2023-08-31T12:41:06;96632.25;;;27.83;48.08
10348;BME280;5220;43.192;23.284;2023-08-31T12:43:34;96624.09;;;28.07;50.28
10348;BME280;5220;43.192;23.284;2023-08-31T12:46:01;96628.53;;;28.13;50.72
10348;BME280;5220;43.192;23.284;2023-08-31T12:48:31;96635.06;;;28.17;48.74
10348;BME280;5220;43.192;23.284;2023-08-31T12:50:57;96633.31;;;28.23;52.01
10348;BME280;5220;43.192;23.284;2023-08-31T12:53:24;96634.34;;;28.22;53.74
10348;BME280;5220;43.192;23.284;2023-08-31T12:55:51;96630.50;;;28.18;54.15
10348;BME280;5220;43.192;23.284;2023-08-31T12:58:18;96636.56;;;28.13;52.69
10348;BME280;5220;43.192;23.284;2023-08-31T13:00:46;96645.72;;;27.76;52.52